createdAt,value
2023-03-22T00:03:31.585Z,77.00
2023-03-22T00:08:34.391Z,82.33
2023-03-22T00:13:37.339Z,92.97
2023-03-22T00:18:40.152Z,74.57
2023-03-22T00:23:42.921Z,76.43
2023-03-22T00:28:45.524Z,65.47
2023-03-22T00:33:47.868Z,88.00
2023-03-22T00:38:51.965Z,78.03
2023-03-22T00:43:54.501Z,80.77
2023-03-22T00:54:35.473Z,71.33
2023-03-22T00:59:58.269Z,72.67
2023-03-22T01:05:21.945Z,74.13
2023-03-22T01:10:44.113Z,74.17
2023-03-22T01:15:49.690Z,66.47
2023-03-22T01:26:13.908Z,69.47
2023-03-22T01:31:35.350Z,75.87
2023-03-22T01:36:37.896Z,74.07
2023-03-22T01:41:40.460Z,74.87
2023-03-22T01:46:50.761Z,86.33
2023-03-22T01:51:57.056Z,68.80
2023-03-22T01:57:10.338Z,63.27
2023-03-22T02:02:20.511Z,67.50
2023-03-22T02:07:31.886Z,64.37
2023-03-22T02:12:52.370Z,54.70
2023-03-22T02:18:26.925Z,61.57
2023-03-22T02:23:52.326Z,57.57
2023-03-22T02:29:13.511Z,69.10
2023-03-22T02:35:04.638Z,68.30
2023-03-22T02:40:36.497Z,58.97
2023-03-22T02:46:12.509Z,67.32
2023-03-22T02:51:24.913Z,58.23
2023-03-22T02:56:52.877Z,58.53
2023-03-22T03:01:59.090Z,59.80
2023-03-22T03:07:25.596Z,62.13
2023-03-22T03:12:32.022Z,62.90
2023-03-22T03:18:05.030Z,70.43
2023-03-22T03:23:13.816Z,64.63
2023-03-22T03:28:30.424Z,65.83
2023-03-22T03:33:35.990Z,69.00
2023-03-22T03:39:00.199Z,69.77
2023-03-22T03:44:03.952Z,69.83
2023-03-22T03:49:11.052Z,67.90
2023-03-22T03:54:13.528Z,71.67
2023-03-22T03:59:18.462Z,67.20
2023-03-22T04:04:27.158Z,71.67
2023-03-22T04:09:40.444Z,73.67
2023-03-22T04:14:51.969Z,80.10
2023-03-22T04:19:59.793Z,80.50
2023-03-22T04:25:02.499Z,87.83
2023-03-22T04:30:10.447Z,82.17
2023-03-22T04:35:42.118Z,80.00
2023-03-22T04:40:46.819Z,78.17
2023-03-22T04:46:06.246Z,84.53
2023-03-22T04:51:15.690Z,84.27
2023-03-22T04:56:29.310Z,79.67
2023-03-22T05:01:32.693Z,81.53
2023-03-22T05:06:46.571Z,73.87
2023-03-22T05:12:01.913Z,78.63
2023-03-22T05:17:13.173Z,76.77
2023-03-22T05:22:17.181Z,75.83
2023-03-22T05:27:31.291Z,73.80
2023-03-22T05:33:09.717Z,74.00
2023-03-22T05:38:18.483Z,76.20
2023-03-22T05:43:26.734Z,79.07
2023-03-22T05:48:29.354Z,76.50
2023-03-22T05:53:33.074Z,70.20
2023-03-22T05:58:46.111Z,78.10
2023-03-22T06:03:52.349Z,66.00
2023-03-22T06:09:20.999Z,68.10
2023-03-22T06:14:27.329Z,60.33
2023-03-22T06:19:42.832Z,59.23
2023-03-22T06:24:48.548Z,61.37
2023-03-22T06:29:59.189Z,54.47
2023-03-22T06:35:02.045Z,50.90
2023-03-22T06:40:05.416Z,46.50
2023-03-22T06:45:08.769Z,50.77
2023-03-22T06:50:15.499Z,57.60
2023-03-22T06:55:36.481Z,48.93
2023-03-22T07:00:58.056Z,47.17
2023-03-22T07:06:07.590Z,50.03
2023-03-22T07:11:13.119Z,44.67
2023-03-22T07:16:19.858Z,46.03
2023-03-22T07:21:27.156Z,42.83
2023-03-22T07:26:38.549Z,38.23
2023-03-22T07:31:42.761Z,38.83
2023-03-22T07:36:48.065Z,33.60
2023-03-22T07:41:51.357Z,34.00
2023-03-22T07:46:56.535Z,36.47
2023-03-22T07:52:06.537Z,33.73
2023-03-22T07:57:09.351Z,30.50
2023-03-22T08:02:20.442Z,56.63
2023-03-22T08:07:26.822Z,36.90
2023-03-22T08:12:29.738Z,42.83
2023-03-22T08:17:41.906Z,30.70
2023-03-22T08:22:51.099Z,30.73
2023-03-22T08:27:56.525Z,32.33
2023-03-22T08:33:02.244Z,35.87
2023-03-22T08:38:05.269Z,116.30
2023-03-22T08:43:16.043Z,65.80
2023-03-22T08:48:19.124Z,33.17
2023-03-22T08:53:41.667Z,27.97
2023-03-22T08:59:19.171Z,23.93
2023-03-22T09:04:31.339Z,23.37
2023-03-22T09:09:33.668Z,22.10
2023-03-22T09:14:36.505Z,21.77
2023-03-22T09:19:39.790Z,31.90
2023-03-22T09:24:42.463Z,20.97
2023-03-22T09:29:45.083Z,18.30
2023-03-22T09:34:52.053Z,15.53
2023-03-22T09:39:54.638Z,16.33
2023-03-22T09:44:58.275Z,20.20
2023-03-22T09:50:08.538Z,20.10
2023-03-22T09:55:41.758Z,18.77
2023-03-22T10:00:48.219Z,17.43
2023-03-22T10:05:57.384Z,18.47
2023-03-22T10:11:01.338Z,18.07
2023-03-22T10:16:11.075Z,19.70
2023-03-22T10:21:16.188Z,20.40
2023-03-22T10:26:44.785Z,21.87
2023-03-22T10:31:47.115Z,22.47
2023-03-22T10:36:52.788Z,13.37
2023-03-22T10:41:58.059Z,13.17
2023-03-22T10:47:07.996Z,12.20
2023-03-22T10:52:44.261Z,19.10
2023-03-22T10:58:12.358Z,13.27
2023-03-22T11:03:29.751Z,13.07
2023-03-22T11:08:40.735Z,10.60
2023-03-22T11:13:43.347Z,11.83
2023-03-22T11:18:46.729Z,15.20
2023-03-22T11:23:56.080Z,14.38
2023-03-22T11:29:16.643Z,14.07
2023-03-22T11:34:21.797Z,30.27
2023-03-22T11:39:29.370Z,11.13
2023-03-22T11:44:35.530Z,15.30
2023-03-22T11:49:39.893Z,9.87
2023-03-22T11:54:43.654Z,11.87
2023-03-22T12:00:23.640Z,11.90
2023-03-22T12:05:35.884Z,9.43
2023-03-22T12:11:14.584Z,10.33
2023-03-22T12:16:50.745Z,12.80
2023-03-22T12:21:56.447Z,10.60
2023-03-22T12:27:33.547Z,9.63
2023-03-22T12:32:58.779Z,11.13
2023-03-22T12:38:42.243Z,11.33
2023-03-22T12:43:59.437Z,7.90
2023-03-22T12:49:59.705Z,8.57
2023-03-22T12:55:32.088Z,15.17
2023-03-22T13:00:42.423Z,21.90
2023-03-22T13:05:47.352Z,18.93
2023-03-22T13:10:58.000Z,11.87
2023-03-22T13:16:00.723Z,9.97
2023-03-22T13:21:16.719Z,20.37
2023-03-22T13:26:20.808Z,8.90
2023-03-22T13:31:40.896Z,8.70
2023-03-22T13:36:51.321Z,7.90
2023-03-22T13:42:21.645Z,7.50
2023-03-22T13:47:43.754Z,9.13
2023-03-22T13:53:21.556Z,5.77
2023-03-22T13:58:45.608Z,7.27
2023-03-22T14:03:50.575Z,14.60
2023-03-22T14:08:58.532Z,5.73
2023-03-22T14:14:06.736Z,8.43
2023-03-22T14:19:17.284Z,4.93
